Time,TemperatureF,DewpointF,PressureIn,WindDirection,WindDirectionDegrees,WindSpeedMPH,WindSpeedGustMPH,Humidity,HourlyPrecipIn,Conditions,Clouds,dailyrainin,SoftwareType,DateUTC
2013-05-03 00:27:00,70.3,63.1,30.04,NE,38,5.0,5.0,78,0.00,,,0.00,VWS V14.01,2013-05-03 10:27:00,
2013-05-03 00:32:00,70.3,63.1,30.03,ESE,104,3.0,3.0,78,0.00,,,0.00,VWS V14.01,2013-05-03 10:32:00,
2013-05-03 00:37:00,70.2,63.0,30.03,ENE,61,1.0,1.0,78,0.00,,,0.00,VWS V14.01,2013-05-03 10:37:00,
2013-05-03 00:42:00,70.1,62.9,30.03,East,93,2.0,3.0,78,0.00,,,0.00,VWS V14.01,2013-05-03 10:42:00,
2013-05-03 00:47:00,70.0,63.2,30.03,ESE,121,8.0,9.0,79,0.00,,,0.00,VWS V14.01,2013-05-03 10:47:00,
2013-05-03 00:52:00,70.2,63.4,30.03,ENE,69,1.0,2.0,79,0.00,,,0.00,VWS V14.01,2013-05-03 10:52:00,
2013-05-03 00:57:00,70.4,63.9,30.03,North,360,2.0,11.0,80,0.00,,,0.00,VWS V14.01,2013-05-03 10:57:00,
2013-05-03 01:02:00,70.6,63.8,30.03,SSW,206,0.0,3.0,79,0.00,,,0.00,VWS V14.01,2013-05-03 11:02:00,
2013-05-03 01:07:00,70.5,63.7,30.02,ENE,76,3.0,7.0,79,0.00,,,0.00,VWS V14.01,2013-05-03 11:07:00,
2013-05-03 01:12:00,70.5,63.7,30.02,North,8,2.0,2.0,79,0.00,,,0.00,VWS V14.01,2013-05-03 11:12:00,
2013-05-03 01:18:00,70.5,63.7,30.02,NNE,25,2.0,6.0,79,0.00,,,0.00,VWS V14.01,2013-05-03 11:18:00,
2013-05-03 01:23:00,70.5,63.3,30.02,NNW,338,8.0,8.0,78,0.00,,,0.00,VWS V14.01,2013-05-03 11:23:00,
2013-05-03 01:28:00,70.6,63.0,30.02,NNW,327,4.0,5.0,77,0.00,,,0.00,VWS V14.01,2013-05-03 11:28:00,
2013-05-03 01:33:00,70.7,63.1,30.02,NNE,22,1.0,2.0,77,0.00,,,0.00,VWS V14.01,2013-05-03 11:33:00,
2013-05-03 01:38:00,70.3,63.1,30.01,NNW,330,6.0,6.0,78,0.00,,,0.00,VWS V14.01,2013-05-03 11:38:00,
2013-05-03 01:44:00,70.7,63.1,30.01,NNW,343,4.0,6.0,77,0.00,,,0.00,VWS V14.01,2013-05-03 11:44:00,
2013-05-03 01:49:00,70.5,62.6,30.01,NNE,23,4.0,5.0,76,0.00,,,0.00,VWS V14.01,2013-05-03 11:49:00,
2013-05-03 01:55:00,69.9,62.7,30.01,NNE,14,4.0,4.0,78,0.00,,,0.00,VWS V14.01,2013-05-03 11:55:00,
2013-05-03 02:00:00,69.4,62.6,30.00,NNE,13,4.0,4.0,79,0.00,,,0.00,VWS V14.01,2013-05-03 12:00:00,
2013-05-03 02:05:00,69.2,62.4,30.00,NNE,15,4.0,4.0,79,0.00,,,0.00,VWS V14.01,2013-05-03 12:05:00,
2013-05-03 02:10:00,69.0,62.2,30.00,North,353,3.0,3.0,79,0.00,,,0.00,VWS V14.01,2013-05-03 12:10:00,
2013-05-03 02:15:00,68.8,62.0,30.00,North,3,2.0,2.0,79,0.00,,,0.00,VWS V14.01,2013-05-03 12:15:00,
2013-05-03 02:20:00,68.7,62.3,30.00,North,11,4.0,4.0,80,0.00,,,0.00,VWS V14.01,2013-05-03 12:20:00,
2013-05-03 02:25:00,68.8,62.4,30.00,NNE,15,3.0,4.0,80,0.00,,,0.00,VWS V14.01,2013-05-03 12:25:00,
2013-05-03 02:30:00,69.2,62.4,30.00,NNE,15,2.0,2.0,79,0.00,,,0.00,VWS V14.01,2013-05-03 12:30:00,
2013-05-03 02:35:00,69.1,62.3,29.99,NNW,342,5.0,5.0,79,0.00,,,0.00,VWS V14.01,2013-05-03 12:35:00,
2013-05-03 02:40:00,69.1,62.3,30.00,NNE,14,4.0,6.0,79,0.00,,,0.00,VWS V14.01,2013-05-03 12:40:00,
2013-05-03 02:45:00,70.1,62.9,30.00,NNE,17,3.0,3.0,78,0.00,,,0.00,VWS V14.01,2013-05-03 12:45:00,
2013-05-03 02:50:00,70.3,62.8,29.99,NNE,24,5.0,5.0,77,0.00,,,0.00,VWS V14.01,2013-05-03 12:50:00,
2013-05-03 02:56:00,69.8,62.6,29.99,NNE,15,5.0,5.0,78,0.00,,,0.00,VWS V14.01,2013-05-03 12:56:00,
2013-05-03 03:01:00,69.4,62.6,29.99,NNE,21,1.0,2.0,79,0.00,,,0.00,VWS V14.01,2013-05-03 13:01:00,
2013-05-03 03:06:00,69.0,62.2,29.99,NNW,337,4.0,4.0,79,0.00,,,0.00,VWS V14.01,2013-05-03 13:06:00,
2013-05-03 03:11:00,68.7,62.3,29.99,NW,313,7.0,7.0,80,0.00,,,0.00,VWS V14.01,2013-05-03 13:11:00,
2013-05-03 03:16:00,68.7,62.3,29.99,NNW,344,5.0,6.0,80,0.00,,,0.00,VWS V14.01,2013-05-03 13:16:00,
2013-05-03 03:21:00,68.7,62.3,29.99,NNW,348,3.0,3.0,80,0.00,,,0.00,VWS V14.01,2013-05-03 13:21:00,
2013-05-03 03:26:00,69.1,62.3,29.99,North,357,4.0,5.0,79,0.00,,,0.00,VWS V14.01,2013-05-03 13:26:00,
2013-05-03 03:31:00,68.9,62.5,29.99,NNW,338,3.0,3.0,80,0.00,,,0.00,VWS V14.01,2013-05-03 13:31:00,
2013-05-03 03:36:00,68.8,62.4,29.99,North,360,1.0,2.0,80,0.00,,,0.00,VWS V14.01,2013-05-03 13:36:00,
2013-05-03 03:42:00,68.5,62.1,29.99,North,350,2.0,2.0,80,0.00,,,0.00,VWS V14.01,2013-05-03 13:42:00,
2013-05-03 03:47:00,68.1,62.1,29.99,NNW,348,3.0,3.0,81,0.00,,,0.00,VWS V14.01,2013-05-03 13:47:00,
2013-05-03 03:52:00,68.0,62.3,29.99,North,1,2.0,3.0,82,0.00,,,0.00,VWS V14.01,2013-05-03 13:52:00,
2013-05-03 03:57:00,68.0,62.3,29.99,NNW,343,2.0,3.0,82,0.00,,,0.00,VWS V14.01,2013-05-03 13:57:00,
2013-05-03 04:02:00,67.7,62.0,29.99,NNW,337,3.0,3.0,82,0.00,,,0.00,VWS V14.01,2013-05-03 14:02:00,
2013-05-03 04:07:00,67.3,62.0,29.99,NNW,330,3.0,4.0,83,0.00,,,0.00,VWS V14.01,2013-05-03 14:07:00,
2013-05-03 04:12:00,67.2,62.2,29.99,NNW,338,6.0,6.0,84,0.00,,,0.00,VWS V14.01,2013-05-03 14:12:00,
2013-05-03 04:17:00,67.6,62.3,29.99,WNW,301,7.0,7.0,83,0.00,,,0.00,VWS V14.01,2013-05-03 14:17:00,
2013-05-03 04:22:00,67.9,62.2,29.99,NNW,336,7.0,7.0,82,0.00,,,0.00,VWS V14.01,2013-05-03 14:22:00,
2013-05-03 04:28:00,68.2,62.5,30.00,NW,325,5.0,7.0,82,0.00,,,0.00,VWS V14.01,2013-05-03 14:28:00,
2013-05-03 04:33:00,68.5,62.5,30.00,NNE,23,3.0,4.0,81,0.00,,,0.00,VWS V14.01,2013-05-03 14:33:00,
2013-05-03 04:38:00,68.8,62.7,30.00,North,9,2.0,2.0,81,0.00,,,0.00,VWS V14.01,2013-05-03 14:38:00,
2013-05-03 04:43:00,68.9,62.5,30.00,NNE,19,1.0,1.0,80,0.00,,,0.00,VWS V14.01,2013-05-03 14:43:00,
2013-05-03 04:48:00,68.9,62.5,30.00,North,10,0.0,0.0,80,0.00,,,0.00,VWS V14.01,2013-05-03 14:48:00,
2013-05-03 04:53:00,68.6,62.2,30.00,NNE,28,3.0,3.0,80,0.00,,,0.00,VWS V14.01,2013-05-03 14:53:00,
2013-05-03 04:58:00,69.0,62.6,30.00,North,359,4.0,4.0,80,0.00,,,0.00,VWS V14.01,2013-05-03 14:58:00,
2013-05-03 05:03:00,69.6,62.8,30.00,North,9,2.0,3.0,79,0.00,,,0.00,VWS V14.01,2013-05-03 15:03:00,
2013-05-03 05:08:00,69.5,62.3,30.00,NNE,18,2.0,3.0,78,0.00,,,0.00,VWS V14.01,2013-05-03 15:08:00,
2013-05-03 05:13:00,69.1,62.7,30.00,NNE,21,2.0,3.0,80,0.00,,,0.00,VWS V14.01,2013-05-03 15:13:00,
2013-05-03 05:19:00,68.6,62.2,30.00,NNE,21,2.0,2.0,80,0.00,,,0.00,VWS V14.01,2013-05-03 15:19:00,
2013-05-03 05:24:00,68.1,62.1,30.00,NNE,28,2.0,2.0,81,0.00,,,0.00,VWS V14.01,2013-05-03 15:24:00,
2013-05-03 05:29:00,67.8,62.1,30.00,NNE,26,2.0,2.0,82,0.00,,,0.00,VWS V14.01,2013-05-03 15:29:00,
2013-05-03 05:34:00,67.9,62.5,30.00,North,9,3.0,3.0,83,0.00,,,0.00,VWS V14.01,2013-05-03 15:34:00,
2013-05-03 05:39:00,67.8,62.1,30.00,NNE,22,2.0,2.0,82,0.00,,,0.00,VWS V14.01,2013-05-03 15:39:00,
2013-05-03 05:44:00,67.3,62.0,30.00,NNE,20,2.0,2.0,83,0.00,,,0.00,VWS V14.01,2013-05-03 15:44:00,
2013-05-03 05:49:00,67.2,61.9,30.00,NNW,330,4.0,4.0,83,0.00,,,0.00,VWS V14.01,2013-05-03 15:49:00,
2013-05-03 05:54:00,66.9,61.6,30.01,NNW,345,2.0,3.0,83,0.00,,,0.00,VWS V14.01,2013-05-03 15:54:00,
2013-05-03 05:59:00,66.8,61.8,30.01,NNW,336,3.0,3.0,84,0.00,,,0.00,VWS V14.01,2013-05-03 15:59:00,
2013-05-03 06:05:00,66.7,61.7,30.01,NNE,28,2.0,2.0,84,0.00,,,0.00,VWS V14.01,2013-05-03 16:05:00,
2013-05-03 06:10:00,67.9,61.9,30.01,NNE,22,5.0,6.0,81,0.00,,,0.00,VWS V14.01,2013-05-03 16:10:00,
2013-05-03 06:15:00,69.0,61.9,30.01,NNE,19,6.0,6.0,78,0.00,,,0.00,VWS V14.01,2013-05-03 16:15:00,
2013-05-03 06:20:00,69.6,61.7,30.01,NNE,31,2.0,2.0,76,0.00,,,0.00,VWS V14.01,2013-05-03 16:20:00,
2013-05-03 06:25:00,70.0,61.7,30.02,NE,39,4.0,4.0,75,0.00,,,0.00,VWS V14.01,2013-05-03 16:25:00,
2013-05-03 06:30:00,70.4,61.7,30.02,NNE,31,3.0,3.0,74,0.00,,,0.00,VWS V14.01,2013-05-03 16:30:00,
2013-05-03 06:35:00,70.7,62.0,30.02,NNE,31,2.0,2.0,74,0.00,,,0.00,VWS V14.01,2013-05-03 16:35:00,
2013-05-03 06:40:00,70.9,62.2,30.02,NNE,28,3.0,3.0,74,0.00,,,0.00,VWS V14.01,2013-05-03 16:40:00,
2013-05-03 06:46:00,71.1,62.4,30.02,NE,39,2.0,3.0,74,0.00,,,0.00,VWS V14.01,2013-05-03 16:46:00,
2013-05-03 06:51:00,71.0,62.3,30.02,NNE,17,2.0,2.0,74,0.00,,,0.00,VWS V14.01,2013-05-03 16:51:00,
2013-05-03 06:56:00,71.4,62.3,30.02,NE,56,2.0,2.0,73,0.00,,,0.00,VWS V14.01,2013-05-03 16:56:00,
2013-05-03 07:01:00,71.7,62.2,30.02,ENE,72,3.0,3.0,72,0.00,,,0.00,VWS V14.01,2013-05-03 17:01:00,
2013-05-03 07:06:00,72.0,62.1,30.02,NE,43,4.0,5.0,71,0.00,,,0.00,VWS V14.01,2013-05-03 17:06:00,
2013-05-03 07:11:00,72.0,62.1,30.03,NE,40,3.0,4.0,71,0.00,,,0.00,VWS V14.01,2013-05-03 17:11:00,
2013-05-03 07:16:00,72.1,62.6,30.03,ENE,78,3.0,4.0,72,0.00,,,0.00,VWS V14.01,2013-05-03 17:16:00,
2013-05-03 07:21:00,72.2,63.1,30.03,ENE,61,6.0,7.0,73,0.00,,,0.00,VWS V14.01,2013-05-03 17:21:00,
2013-05-03 07:26:00,72.0,63.3,30.03,NE,56,2.0,2.0,74,0.00,,,0.00,VWS V14.01,2013-05-03 17:26:00,
2013-05-03 07:31:00,72.1,63.0,30.03,ENE,66,1.0,1.0,73,0.00,,,0.00,VWS V14.01,2013-05-03 17:31:00,
2013-05-03 07:37:00,72.8,63.7,30.04,East,83,4.0,5.0,73,0.00,,,0.00,VWS V14.01,2013-05-03 17:37:00,
2013-05-03 07:42:00,72.9,63.3,30.04,East,93,4.0,4.0,72,0.00,,,0.00,VWS V14.01,2013-05-03 17:42:00,
2013-05-03 07:47:00,72.9,63.0,30.04,ENE,71,4.0,9.0,71,0.00,,,0.00,VWS V14.01,2013-05-03 17:47:00,
2013-05-03 07:52:00,73.1,63.9,30.04,East,96,5.0,5.0,73,0.00,,,0.00,VWS V14.01,2013-05-03 17:52:00,
2013-05-03 07:57:00,73.2,64.0,30.04,East,88,3.0,4.0,73,0.00,,,0.00,VWS V14.01,2013-05-03 17:57:00,
2013-05-03 08:02:00,73.3,64.1,30.04,ESE,102,6.0,6.0,73,0.00,,,0.00,VWS V14.01,2013-05-03 18:02:00,
2013-05-03 08:07:00,73.5,64.3,30.04,East,99,4.0,4.0,73,0.00,,,0.00,VWS V14.01,2013-05-03 18:07:00,
2013-05-03 08:12:00,73.6,64.0,30.04,ENE,68,5.0,5.0,72,0.00,,,0.00,VWS V14.01,2013-05-03 18:12:00,
2013-05-03 08:17:00,73.6,64.0,30.05,ESE,108,7.0,7.0,72,0.00,,,0.00,VWS V14.01,2013-05-03 18:17:00,
2013-05-03 08:22:00,73.8,64.2,30.05,ENE,67,6.0,7.0,72,0.00,,,0.00,VWS V14.01,2013-05-03 18:22:00,
2013-05-03 08:27:00,73.9,63.9,30.05,NE,56,7.0,9.0,71,0.00,,,0.00,VWS V14.01,2013-05-03 18:27:00,
2013-05-03 08:32:00,73.8,63.8,30.04,NE,55,9.0,9.0,71,0.00,,,0.00,VWS V14.01,2013-05-03 18:32:00,
2013-05-03 08:37:00,73.6,64.0,30.05,NE,36,9.0,11.0,72,0.00,,,0.00,VWS V14.01,2013-05-03 18:37:00,
2013-05-03 08:42:00,73.9,64.3,30.05,ENE,77,8.0,8.0,72,0.00,,,0.00,VWS V14.01,2013-05-03 18:42:00,
2013-05-03 08:48:00,74.2,64.2,30.05,NNE,23,7.0,7.0,71,0.00,,,0.00,VWS V14.01,2013-05-03 18:48:00,
2013-05-03 08:53:00,74.9,64.9,30.05,East,89,11.0,11.0,71,0.00,,,0.00,VWS V14.01,2013-05-03 18:53:00,
2013-05-03 08:58:00,74.9,64.5,30.05,NNE,28,5.0,7.0,70,0.00,,,0.00,VWS V14.01,2013-05-03 18:58:00,
2013-05-03 09:03:00,75.1,64.2,30.05,ENE,59,5.0,6.0,69,0.00,,,0.00,VWS V14.01,2013-05-03 19:03:00,
2013-05-03 09:08:00,74.9,64.5,30.05,East,87,6.0,6.0,70,0.00,,,0.00,VWS V14.01,2013-05-03 19:08:00,
2013-05-03 09:13:00,75.4,64.9,30.04,ENE,69,12.0,12.0,70,0.00,,,0.00,VWS V14.01,2013-05-03 19:13:00,
2013-05-03 09:18:00,75.5,64.2,30.04,NE,52,4.0,6.0,68,0.00,,,0.00,VWS V14.01,2013-05-03 19:18:00,
2013-05-03 09:23:00,75.8,64.9,30.04,NE,54,4.0,4.0,69,0.00,,,0.00,VWS V14.01,2013-05-03 19:23:00,
2013-05-03 09:28:00,75.5,64.2,30.04,ENE,71,12.0,12.0,68,0.00,,,0.00,VWS V14.01,2013-05-03 19:28:00,
2013-05-03 09:34:00,75.7,64.8,30.04,NE,50,5.0,9.0,69,0.00,,,0.00,VWS V14.01,2013-05-03 19:34:00,
2013-05-03 09:39:00,75.6,63.9,30.04,ENE,66,7.0,7.0,67,0.00,,,0.00,VWS V14.01,2013-05-03 19:39:00,
2013-05-03 09:44:00,75.5,64.2,30.04,NE,34,6.0,7.0,68,0.00,,,0.00,VWS V14.01,2013-05-03 19:44:00,
2013-05-03 09:49:00,76.1,63.9,30.04,East,93,7.0,8.0,66,0.00,,,0.00,VWS V14.01,2013-05-03 19:49:00,
2013-05-03 09:54:00,76.6,63.5,30.04,East,90,6.0,6.0,64,0.00,,,0.00,VWS V14.01,2013-05-03 19:54:00,
2013-05-03 09:59:00,76.5,63.0,30.04,NE,52,2.0,6.0,63,0.00,,,0.00,VWS V14.01,2013-05-03 19:59:00,
2013-05-03 10:04:00,77.2,64.5,30.03,East,87,13.0,14.0,65,0.00,,,0.00,VWS V14.01,2013-05-03 20:04:00,
2013-05-03 10:10:00,78.1,64.0,30.03,East,80,7.0,8.0,62,0.00,,,0.00,VWS V14.01,2013-05-03 20:10:00,
2013-05-03 10:15:00,78.3,63.3,30.03,SE,124,7.0,8.0,60,0.00,,,0.00,VWS V14.01,2013-05-03 20:15:00,
2013-05-03 10:20:00,78.3,63.3,30.04,ENE,70,7.0,8.0,60,0.00,,,0.00,VWS V14.01,2013-05-03 20:20:00,
2013-05-03 10:25:00,78.1,63.6,30.04,ESE,108,12.0,15.0,61,0.00,,,0.00,VWS V14.01,2013-05-03 20:25:00,
2013-05-03 10:30:00,78.5,63.5,30.03,ESE,116,14.0,14.0,60,0.00,,,0.00,VWS V14.01,2013-05-03 20:30:00,
2013-05-03 10:35:00,78.6,63.6,30.04,ESE,123,16.0,16.0,60,0.00,,,0.00,VWS V14.01,2013-05-03 20:35:00,
2013-05-03 10:40:00,78.4,63.4,30.04,East,99,7.0,14.0,60,0.00,,,0.00,VWS V14.01,2013-05-03 20:40:00,
2013-05-03 10:45:00,78.2,63.2,30.04,ESE,112,12.0,15.0,60,0.00,,,0.00,VWS V14.01,2013-05-03 20:45:00,
2013-05-03 10:51:00,78.4,63.8,30.03,ESE,104,12.0,14.0,61,0.00,,,0.00,VWS V14.01,2013-05-03 20:51:00,
2013-05-03 10:56:00,79.0,63.9,30.03,East,100,15.0,15.0,60,0.00,,,0.00,VWS V14.01,2013-05-03 20:56:00,
2013-05-03 11:01:00,78.1,63.6,30.03,ENE,62,9.0,13.0,61,0.00,,,0.00,VWS V14.01,2013-05-03 21:01:00,
2013-05-03 11:06:00,78.3,63.8,30.03,ESE,122,14.0,15.0,61,0.00,,,0.00,VWS V14.01,2013-05-03 21:06:00,
2013-05-03 11:11:00,78.0,63.0,30.03,ESE,118,8.0,11.0,60,0.00,,,0.00,VWS V14.01,2013-05-03 21:11:00,
2013-05-03 11:16:00,78.2,63.2,30.03,ESE,106,14.0,17.0,60,0.00,,,0.00,VWS V14.01,2013-05-03 21:16:00,
2013-05-03 11:21:00,78.3,64.7,30.02,East,99,10.0,13.0,63,0.00,,,0.00,VWS V14.01,2013-05-03 21:21:00,
2013-05-03 11:26:00,78.0,63.5,30.02,ENE,57,9.0,9.0,61,0.00,,,0.00,VWS V14.01,2013-05-03 21:26:00,
2013-05-03 11:31:00,78.1,63.6,30.02,ESE,116,14.0,14.0,61,0.00,,,0.00,VWS V14.01,2013-05-03 21:31:00,
2013-05-03 11:37:00,78.4,62.9,30.02,ENE,72,9.0,11.0,59,0.00,,,0.00,VWS V14.01,2013-05-03 21:37:00,
2013-05-03 11:42:00,78.3,63.8,30.02,SE,146,8.0,12.0,61,0.00,,,0.00,VWS V14.01,2013-05-03 21:42:00,
2013-05-03 11:47:00,78.6,64.0,30.01,ESE,115,15.0,17.0,61,0.00,,,0.00,VWS V14.01,2013-05-03 21:47:00,
2013-05-03 11:52:00,78.8,64.2,30.02,ESE,111,13.0,15.0,61,0.00,,,0.00,VWS V14.01,2013-05-03 21:52:00,
2013-05-03 11:57:00,79.2,62.7,30.01,ESE,120,4.0,4.0,57,0.00,,,0.00,VWS V14.01,2013-05-03 21:57:00,
2013-05-03 12:02:00,79.2,64.1,30.01,SE,132,6.0,10.0,60,0.00,,,0.00,VWS V14.01,2013-05-03 22:02:00,
2013-05-03 12:07:00,79.2,63.7,30.01,ESE,112,4.0,6.0,59,0.00,,,0.00,VWS V14.01,2013-05-03 22:07:00,
2013-05-03 12:12:00,78.6,64.0,30.01,East,83,6.0,8.0,61,0.00,,,0.00,VWS V14.01,2013-05-03 22:12:00,
2013-05-03 12:17:00,79.4,63.3,30.00,ESE,103,10.0,10.0,58,0.00,,,0.00,VWS V14.01,2013-05-03 22:17:00,
2013-05-03 12:22:00,79.3,63.7,30.00,East,79,8.0,10.0,59,0.00,,,0.00,VWS V14.01,2013-05-03 22:22:00,
2013-05-03 12:27:00,78.8,63.3,30.00,ESE,111,4.0,6.0,59,0.00,,,0.00,VWS V14.01,2013-05-03 22:27:00,
2013-05-03 12:33:00,79.0,63.9,29.99,SE,128,17.0,17.0,60,0.00,,,0.00,VWS V14.01,2013-05-03 22:33:00,
2013-05-03 12:38:00,78.9,63.8,29.99,East,97,8.0,8.0,60,0.00,,,0.00,VWS V14.01,2013-05-03 22:38:00,
2013-05-03 12:43:00,79.2,63.2,29.99,SSE,151,9.0,11.0,58,0.00,,,0.00,VWS V14.01,2013-05-03 22:43:00,
2013-05-03 12:48:00,78.6,63.1,29.99,ESE,103,8.0,8.0,59,0.00,,,0.00,VWS V14.01,2013-05-03 22:48:00,
2013-05-03 12:53:00,78.9,62.4,29.99,East,99,9.0,11.0,57,0.00,,,0.00,VWS V14.01,2013-05-03 22:53:00,
2013-05-03 12:58:00,78.9,62.9,29.99,East,99,8.0,10.0,58,0.00,,,0.00,VWS V14.01,2013-05-03 22:58:00,
2013-05-03 13:03:00,79.0,63.5,29.99,East,98,11.0,11.0,59,0.00,,,0.00,VWS V14.01,2013-05-03 23:03:00,
2013-05-03 13:08:00,79.0,63.5,29.98,East,87,11.0,11.0,59,0.00,,,0.00,VWS V14.01,2013-05-03 23:08:00,
2013-05-03 13:13:00,78.6,62.6,29.99,East,85,10.0,11.0,58,0.00,,,0.00,VWS V14.01,2013-05-03 23:13:00,
2013-05-03 13:19:00,78.3,62.3,29.98,ENE,71,11.0,11.0,58,0.00,,,0.00,VWS V14.01,2013-05-03 23:19:00,
2013-05-03 13:24:00,77.4,62.9,29.99,East,96,12.0,15.0,61,0.00,,,0.00,VWS V14.01,2013-05-03 23:24:00,
2013-05-03 13:29:00,77.2,62.7,29.98,ENE,57,7.0,7.0,61,0.00,,,0.00,VWS V14.01,2013-05-03 23:29:00,
2013-05-03 13:34:00,78.3,62.8,29.98,East,90,10.0,11.0,59,0.00,,,0.00,VWS V14.01,2013-05-03 23:34:00,
2013-05-03 13:39:00,78.2,64.1,29.98,East,101,4.0,6.0,62,0.00,,,0.00,VWS V14.01,2013-05-03 23:39:00,
2013-05-03 13:44:00,78.3,64.2,29.98,ESE,103,13.0,13.0,62,0.00,,,0.00,VWS V14.01,2013-05-03 23:44:00,
2013-05-03 13:49:00,78.4,63.8,29.98,ESE,111,11.0,11.0,61,0.00,,,0.00,VWS V14.01,2013-05-03 23:49:00,
2013-05-03 13:54:00,78.8,62.8,29.98,ESE,123,10.0,10.0,58,0.00,,,0.00,VWS V14.01,2013-05-03 23:54:00,
2013-05-03 13:59:00,78.0,63.0,29.97,ESE,106,10.0,14.0,60,0.00,,,0.00,VWS V14.01,2013-05-03 23:59:00,
2013-05-03 14:04:00,78.0,63.0,29.97,East,95,9.0,9.0,60,0.00,,,0.00,VWS V14.01,2013-05-04 00:04:00,
2013-05-03 14:09:00,78.1,63.6,29.97,NE,41,8.0,9.0,61,0.00,,,0.00,VWS V14.01,2013-05-04 00:09:00,
2013-05-03 14:15:00,78.1,64.0,29.97,East,98,14.0,14.0,62,0.00,,,0.00,VWS V14.01,2013-05-04 00:15:00,
2013-05-03 14:20:00,78.1,64.0,29.97,East,99,13.0,14.0,62,0.00,,,0.00,VWS V14.01,2013-05-04 00:20:00,
2013-05-03 14:25:00,78.5,63.5,29.96,ESE,108,12.0,12.0,60,0.00,,,0.00,VWS V14.01,2013-05-04 00:25:00,
2013-05-03 14:30:00,78.6,62.6,29.96,East,89,12.0,14.0,58,0.00,,,0.00,VWS V14.01,2013-05-04 00:30:00,
2013-05-03 14:35:00,78.4,62.4,29.96,East,87,12.0,12.0,58,0.00,,,0.00,VWS V14.01,2013-05-04 00:35:00,
2013-05-03 14:40:00,77.3,62.3,29.96,ENE,75,9.0,14.0,60,0.00,,,0.00,VWS V14.01,2013-05-04 00:40:00,
2013-05-03 14:45:00,77.4,62.4,29.96,ESE,118,11.0,11.0,60,0.00,,,0.00,VWS V14.01,2013-05-04 00:45:00,
2013-05-03 14:50:00,77.5,62.1,29.96,ENE,61,7.0,10.0,59,0.00,,,0.00,VWS V14.01,2013-05-04 00:50:00,
2013-05-03 14:55:00,78.2,62.2,29.96,ENE,59,11.0,11.0,58,0.00,,,0.00,VWS V14.01,2013-05-04 00:55:00,
2013-05-03 15:01:00,77.8,62.8,29.96,ESE,112,11.0,11.0,60,0.00,,,0.00,VWS V14.01,2013-05-04 01:01:00,
2013-05-03 15:06:00,78.1,62.6,29.96,ENE,76,12.0,13.0,59,0.00,,,0.00,VWS V14.01,2013-05-04 01:06:00,
2013-05-03 15:11:00,77.9,63.8,29.96,ESE,102,11.0,12.0,62,0.00,,,0.00,VWS V14.01,2013-05-04 01:11:00,
2013-05-03 15:16:00,77.8,63.3,29.96,ESE,104,12.0,17.0,61,0.00,,,0.00,VWS V14.01,2013-05-04 01:16:00,
2013-05-03 15:21:00,77.7,63.7,29.96,NE,53,9.0,10.0,62,0.00,,,0.00,VWS V14.01,2013-05-04 01:21:00,
2013-05-03 15:26:00,77.6,65.3,29.96,East,85,11.0,11.0,66,0.00,,,0.00,VWS V14.01,2013-05-04 01:26:00,
2013-05-03 15:31:00,77.1,64.4,29.96,ESE,106,11.0,11.0,65,0.00,,,0.00,VWS V14.01,2013-05-04 01:31:00,
2013-05-03 15:36:00,77.4,63.4,29.96,East,81,8.0,10.0,62,0.00,,,0.00,VWS V14.01,2013-05-04 01:36:00,
2013-05-03 15:42:00,77.5,63.5,29.96,East,91,10.0,13.0,62,0.00,,,0.00,VWS V14.01,2013-05-04 01:42:00,
2013-05-03 15:47:00,76.7,63.6,29.96,East,96,8.0,10.0,64,0.00,,,0.00,VWS V14.01,2013-05-04 01:47:00,
2013-05-03 15:52:00,76.1,64.8,29.97,ENE,59,10.0,12.0,68,0.00,,,0.00,VWS V14.01,2013-05-04 01:52:00,
2013-05-03 15:57:00,76.2,65.3,29.96,NNE,15,14.0,14.0,69,0.00,,,0.00,VWS V14.01,2013-05-04 01:57:00,
2013-05-03 16:02:00,76.2,64.9,29.96,NE,38,9.0,14.0,68,0.00,,,0.00,VWS V14.01,2013-05-04 02:02:00,
2013-05-03 16:07:00,75.7,64.0,29.96,NNE,18,5.0,11.0,67,0.00,,,0.00,VWS V14.01,2013-05-04 02:07:00,
2013-05-03 16:12:00,75.7,63.1,29.96,North,349,8.0,10.0,65,0.00,,,0.00,VWS V14.01,2013-05-04 02:12:00,
2013-05-03 16:17:00,75.7,64.4,29.96,NE,52,11.0,13.0,68,0.00,,,0.00,VWS V14.01,2013-05-04 02:17:00,
2013-05-03 16:22:00,75.5,65.0,29.96,ENE,68,6.0,9.0,70,0.00,,,0.00,VWS V14.01,2013-05-04 02:22:00,
2013-05-03 16:27:00,75.7,65.6,29.96,ENE,75,6.0,8.0,71,0.00,,,0.00,VWS V14.01,2013-05-04 02:27:00,
2013-05-03 16:33:00,75.5,65.0,29.96,East,96,9.0,10.0,70,0.00,,,0.00,VWS V14.01,2013-05-04 02:33:00,
2013-05-03 16:38:00,75.6,64.7,29.96,NE,56,9.0,9.0,69,0.00,,,0.00,VWS V14.01,2013-05-04 02:38:00,
2013-05-03 16:43:00,75.4,64.9,29.96,NE,53,7.0,12.0,70,0.00,,,0.00,VWS V14.01,2013-05-04 02:43:00,
2013-05-03 16:48:00,75.1,65.1,29.96,ENE,63,9.0,10.0,71,0.00,,,0.00,VWS V14.01,2013-05-04 02:48:00,
2013-05-03 16:53:00,75.0,64.6,29.96,NNE,22,10.0,11.0,70,0.00,,,0.00,VWS V14.01,2013-05-04 02:53:00,
2013-05-03 16:59:00,74.7,65.1,29.96,ENE,63,10.0,10.0,72,0.00,,,0.00,VWS V14.01,2013-05-04 02:59:00,
2013-05-03 17:07:00,74.7,65.1,29.96,ENE,63,10.0,10.0,72,0.00,,,0.00,VWS V14.01,2013-05-04 03:07:00,
2013-05-03 17:12:00,74.3,65.1,29.96,ENE,59,9.0,9.0,73,0.00,,,0.00,VWS V14.01,2013-05-04 03:12:00,
2013-05-03 17:17:00,74.1,64.5,29.96,NNE,29,10.0,10.0,72,0.00,,,0.00,VWS V14.01,2013-05-04 03:17:00,
2013-05-03 17:22:00,74.0,64.8,29.96,ENE,58,5.0,7.0,73,0.00,,,0.00,VWS V14.01,2013-05-04 03:22:00,
2013-05-03 17:27:00,74.1,65.3,29.96,East,83,8.0,8.0,74,0.00,,,0.00,VWS V14.01,2013-05-04 03:27:00,
2013-05-03 17:32:00,73.7,64.9,29.96,NE,48,6.0,6.0,74,0.00,,,0.00,VWS V14.01,2013-05-04 03:32:00,
2013-05-03 17:37:00,73.4,65.0,29.96,NNE,33,12.0,12.0,75,0.00,,,0.00,VWS V14.01,2013-05-04 03:37:00,
2013-05-03 17:42:00,73.2,65.2,29.96,ENE,66,9.0,9.0,76,0.00,,,0.00,VWS V14.01,2013-05-04 03:42:00,
2013-05-03 17:47:00,73.0,65.0,29.96,NE,50,6.0,7.0,76,0.00,,,0.00,VWS V14.01,2013-05-04 03:47:00,
2013-05-03 17:52:00,72.8,65.2,29.96,East,95,10.0,10.0,77,0.00,,,0.00,VWS V14.01,2013-05-04 03:52:00,
2013-05-03 17:57:00,72.6,65.0,29.96,NE,41,5.0,6.0,77,0.00,,,0.00,VWS V14.01,2013-05-04 03:57:00,
2013-05-03 18:01:00,72.5,64.9,29.96,East,98,13.0,13.0,77,0.00,,,0.00,VWS V14.01,2013-05-04 04:01:00,
2013-05-03 18:03:00,72.4,65.2,29.96,NE,38,10.0,10.0,78,0.00,,,0.00,VWS V14.01,2013-05-04 04:03:00,
2013-05-03 18:08:00,72.4,65.2,29.96,East,92,7.0,8.0,78,0.00,,,0.00,VWS V14.01,2013-05-04 04:08:00,
2013-05-03 18:13:00,72.3,65.1,29.96,NNW,335,7.0,7.0,78,0.00,,,0.00,VWS V14.01,2013-05-04 04:13:00,
2013-05-03 18:18:00,72.3,65.1,29.97,NNW,342,12.0,12.0,78,0.00,,,0.00,VWS V14.01,2013-05-04 04:18:00,
2013-05-03 18:23:00,72.3,65.1,29.97,ENE,62,8.0,8.0,78,0.00,,,0.00,VWS V14.01,2013-05-04 04:23:00,
2013-05-03 18:28:00,72.2,65.0,29.97,ENE,63,8.0,8.0,78,0.00,,,0.00,VWS V14.01,2013-05-04 04:28:00,
2013-05-03 18:33:00,72.2,65.0,29.97,East,99,7.0,7.0,78,0.00,,,0.00,VWS V14.01,2013-05-04 04:33:00,
2013-05-03 18:39:00,72.1,64.9,29.97,East,79,4.0,5.0,78,0.00,,,0.00,VWS V14.01,2013-05-04 04:39:00,
2013-05-03 18:44:00,72.0,65.1,29.97,NE,49,7.0,8.0,79,0.00,,,0.00,VWS V14.01,2013-05-04 04:44:00,
2013-05-03 18:49:00,71.9,65.0,29.97,NE,51,6.0,6.0,79,0.00,,,0.00,VWS V14.01,2013-05-04 04:49:00,
2013-05-03 18:54:00,71.8,64.9,29.98,NE,53,2.0,6.0,79,0.00,,,0.00,VWS V14.01,2013-05-04 04:54:00,
2013-05-03 18:59:00,71.8,65.3,29.98,NNE,24,8.0,8.0,80,0.00,,,0.00,VWS V14.01,2013-05-04 04:59:00,
2013-05-03 19:04:00,71.8,65.7,29.98,NNE,21,8.0,8.0,81,0.00,,,0.00,VWS V14.01,2013-05-04 05:04:00,
2013-05-03 19:09:00,71.6,65.5,29.98,ESE,102,3.0,3.0,81,0.00,,,0.00,VWS V14.01,2013-05-04 05:09:00,
2013-05-03 19:14:00,71.4,65.6,29.98,NE,51,5.0,5.0,82,0.00,,,0.00,VWS V14.01,2013-05-04 05:14:00,
2013-05-03 19:19:00,71.4,65.6,29.98,ENE,59,0.0,0.0,82,0.00,,,0.00,VWS V14.01,2013-05-04 05:19:00,
2013-05-03 19:24:00,71.3,65.5,29.98,NE,54,0.0,0.0,82,0.00,,,0.00,VWS V14.01,2013-05-04 05:24:00,
2013-05-03 19:29:00,71.2,65.4,29.99,East,79,5.0,7.0,82,0.00,,,0.00,VWS V14.01,2013-05-04 05:29:00,
2013-05-03 19:35:00,71.1,65.7,29.99,NNE,21,9.0,9.0,83,0.00,,,0.00,VWS V14.01,2013-05-04 05:35:00,
2013-05-03 19:40:00,71.1,65.7,29.99,NE,53,3.0,3.0,83,0.00,,,0.00,VWS V14.01,2013-05-04 05:40:00,
2013-05-03 19:45:00,71.0,65.2,29.99,ENE,62,2.0,2.0,82,0.00,,,0.00,VWS V14.01,2013-05-04 05:45:00,
2013-05-03 19:50:00,71.0,65.2,29.99,NE,45,3.0,4.0,82,0.00,,,0.00,VWS V14.01,2013-05-04 05:50:00,
2013-05-03 19:55:00,71.0,65.2,29.99,ENE,63,4.0,5.0,82,0.00,,,0.00,VWS V14.01,2013-05-04 05:55:00,
2013-05-03 20:00:00,71.0,65.2,29.99,NE,45,6.0,6.0,82,0.00,,,0.00,VWS V14.01,2013-05-04 06:00:00,
2013-05-03 20:05:00,70.9,65.1,29.99,East,89,6.0,8.0,82,0.00,,,0.00,VWS V14.01,2013-05-04 06:05:00,
2013-05-03 20:10:00,71.0,65.2,29.99,ENE,59,9.0,10.0,82,0.00,,,0.00,VWS V14.01,2013-05-04 06:10:00,
2013-05-03 20:15:00,71.0,65.2,30.00,ESE,103,10.0,10.0,82,0.00,,,0.00,VWS V14.01,2013-05-04 06:15:00,
2013-05-03 20:21:00,71.0,65.6,30.00,NNE,28,6.0,9.0,83,0.00,,,0.00,VWS V14.01,2013-05-04 06:21:00,
2013-05-03 20:26:00,71.0,65.2,30.00,ENE,61,7.0,7.0,82,0.00,,,0.00,VWS V14.01,2013-05-04 06:26:00,
2013-05-03 20:31:00,70.9,65.5,30.00,NE,44,6.0,7.0,83,0.00,,,0.00,VWS V14.01,2013-05-04 06:31:00,
2013-05-03 20:36:00,70.8,65.0,30.00,NNE,31,6.0,6.0,82,0.00,,,0.00,VWS V14.01,2013-05-04 06:36:00,
2013-05-03 20:41:00,70.8,65.0,30.00,NNE,23,5.0,5.0,82,0.00,,,0.00,VWS V14.01,2013-05-04 06:41:00,
2013-05-03 20:46:00,70.9,64.8,30.00,ENE,61,3.0,3.0,81,0.00,,,0.00,VWS V14.01,2013-05-04 06:46:00,
2013-05-03 20:51:00,70.9,64.8,30.00,NE,35,3.0,3.0,81,0.00,,,0.00,VWS V14.01,2013-05-04 06:51:00,
2013-05-03 20:56:00,70.8,64.7,30.00,NNE,28,4.0,4.0,81,0.00,,,0.00,VWS V14.01,2013-05-04 06:56:00,
2013-05-03 21:02:00,70.8,64.7,30.00,NNE,29,3.0,4.0,81,0.00,,,0.00,VWS V14.01,2013-05-04 07:02:00,
2013-05-03 21:07:00,70.8,64.3,30.00,NE,40,4.0,5.0,80,0.00,,,0.00,VWS V14.01,2013-05-04 07:07:00,
2013-05-03 21:12:00,70.6,64.5,30.00,NNE,31,4.0,4.0,81,0.00,,,0.00,VWS V14.01,2013-05-04 07:12:00,
2013-05-03 21:17:00,70.6,64.5,30.00,NNE,16,3.0,4.0,81,0.00,,,0.00,VWS V14.01,2013-05-04 07:17:00,
2013-05-03 21:22:00,70.4,63.9,30.00,NNE,21,1.0,1.0,80,0.00,,,0.00,VWS V14.01,2013-05-04 07:22:00,
2013-05-03 21:27:00,70.3,64.2,30.00,NNE,22,2.0,2.0,81,0.00,,,0.00,VWS V14.01,2013-05-04 07:27:00,
2013-05-03 21:32:00,70.3,64.2,30.00,North,350,3.0,3.0,81,0.00,,,0.00,VWS V14.01,2013-05-04 07:32:00,
2013-05-03 21:37:00,70.2,64.1,30.00,North,358,2.0,3.0,81,0.00,,,0.00,VWS V14.01,2013-05-04 07:37:00,
2013-05-03 21:42:00,70.0,63.5,30.00,NNW,338,3.0,4.0,80,0.00,,,0.00,VWS V14.01,2013-05-04 07:42:00,
2013-05-03 21:48:00,69.6,63.5,30.00,NW,305,5.0,5.0,81,0.00,,,0.00,VWS V14.01,2013-05-04 07:48:00,
2013-05-03 21:53:00,69.6,63.2,30.00,NNW,334,5.0,5.0,80,0.00,,,0.00,VWS V14.01,2013-05-04 07:53:00,
2013-05-03 21:58:00,69.6,63.2,30.00,NW,308,6.0,6.0,80,0.00,,,0.00,VWS V14.01,2013-05-04 07:58:00,
2013-05-03 22:03:00,69.8,63.4,30.00,NW,322,6.0,6.0,80,0.00,,,0.00,VWS V14.01,2013-05-04 08:03:00,
2013-05-03 22:08:00,69.9,63.1,30.01,NE,38,4.0,4.0,79,0.00,,,0.00,VWS V14.01,2013-05-04 08:08:00,
2013-05-03 22:13:00,69.8,63.0,30.01,NW,322,4.0,5.0,79,0.00,,,0.00,VWS V14.01,2013-05-04 08:13:00,
2013-05-03 22:18:00,69.7,62.9,30.01,NNW,329,3.0,3.0,79,0.00,,,0.00,VWS V14.01,2013-05-04 08:18:00,
2013-05-03 22:23:00,69.6,62.8,30.00,NNW,337,4.0,4.0,79,0.00,,,0.00,VWS V14.01,2013-05-04 08:23:00,
2013-05-03 22:29:00,69.6,63.2,30.00,North,7,5.0,5.0,80,0.00,,,0.00,VWS V14.01,2013-05-04 08:29:00,
2013-05-03 22:34:00,69.6,63.2,30.01,NW,306,5.0,6.0,80,0.00,,,0.00,VWS V14.01,2013-05-04 08:34:00,
2013-05-03 22:39:00,69.7,63.3,30.00,NW,319,7.0,7.0,80,0.00,,,0.00,VWS V14.01,2013-05-04 08:39:00,
2013-05-03 22:44:00,69.6,63.2,30.01,NW,312,6.0,6.0,80,0.00,,,0.00,VWS V14.01,2013-05-04 08:44:00,
2013-05-03 22:49:00,69.7,63.3,30.01,NW,308,4.0,5.0,80,0.00,,,0.00,VWS V14.01,2013-05-04 08:49:00,
2013-05-03 22:54:00,69.6,63.2,30.01,NNW,334,4.0,5.0,80,0.00,,,0.00,VWS V14.01,2013-05-04 08:54:00,
2013-05-03 22:59:00,69.6,63.2,30.01,North,5,3.0,4.0,80,0.00,,,0.00,VWS V14.01,2013-05-04 08:59:00,
2013-05-03 23:04:00,69.4,63.0,30.01,NNE,27,1.0,1.0,80,0.00,,,0.00,VWS V14.01,2013-05-04 09:04:00,
2013-05-03 23:09:00,69.5,63.1,30.00,NNE,13,0.0,1.0,80,0.00,,,0.00,VWS V14.01,2013-05-04 09:09:00,
2013-05-03 23:15:00,69.4,63.0,30.00,North,2,0.0,1.0,80,0.00,,,0.00,VWS V14.01,2013-05-04 09:15:00,
2013-05-03 23:20:00,69.3,63.2,30.00,North,357,3.0,3.0,81,0.00,,,0.00,VWS V14.01,2013-05-04 09:20:00,
2013-05-03 23:25:00,69.3,62.9,30.00,NW,319,4.0,4.0,80,0.00,,,0.00,VWS V14.01,2013-05-04 09:25:00,
2013-05-03 23:30:00,69.2,63.1,30.00,NNW,338,5.0,5.0,81,0.00,,,0.00,VWS V14.01,2013-05-04 09:30:00,
2013-05-03 23:35:00,69.4,63.3,30.00,NNW,348,3.0,4.0,81,0.00,,,0.00,VWS V14.01,2013-05-04 09:35:00,
2013-05-03 23:40:00,69.3,62.9,30.00,NNE,29,2.0,2.0,80,0.00,,,0.00,VWS V14.01,2013-05-04 09:40:00,
2013-05-03 23:45:00,69.2,63.1,30.00,North,353,3.0,3.0,81,0.00,,,0.00,VWS V14.01,2013-05-04 09:45:00,
2013-05-03 23:50:00,69.0,62.9,30.00,North,357,3.0,3.0,81,0.00,,,0.00,VWS V14.01,2013-05-04 09:50:00,
2013-05-03 23:55:00,68.8,62.7,29.99,NNW,336,6.0,6.0,81,0.00,,,0.00,VWS V14.01,2013-05-04 09:55:00,